Time;durP1;ratioP1;P1;durP2;ratioP2;P2;SDS_P1;SDS_P2;PMS_P1;PMS_P2;Temp;Humidity;BMP_temperature;BMP_pressure;BME280_temperature;BME280_humidity;BME280_pressure;Samples;Min_cycle;Max_cycle;Signal;HPM_P1;HPM_P2
2021/07/01 00:01:09;;;;;;;19.83;12.60;;;;;;;15.69;100.00;100150.97;5024456;28;20139;-61
2021/07/01 00:03:36;;;;;;;17.20;12.10;;;;;;;15.68;100.00;100141.28;5030405;28;20056;-58
2021/07/01 00:06:02;;;;;;;21.63;13.38;;;;;;;15.70;100.00;100144.69;5027474;28;20053;-59
2021/07/01 00:08:29;;;;;;;21.08;13.45;;;;;;;15.69;100.00;100145.66;5021968;28;20046;-61
2021/07/01 00:10:56;;;;;;;20.88;13.63;;;;;;;15.71;100.00;100146.41;5032889;28;20052;-62
2021/07/01 00:13:23;;;;;;;19.17;13.00;;;;;;;15.70;100.00;100149.16;5036205;28;20053;-61
2021/07/01 00:15:49;;;;;;;19.95;13.93;;;;;;;15.68;100.00;100149.28;5037793;28;20052;-60
2021/07/01 00:18:16;;;;;;;24.17;13.88;;;;;;;15.68;100.00;100145.75;5035903;28;20044;-61
2021/07/01 00:20:42;;;;;;;19.17;12.20;;;;;;;15.65;100.00;100144.16;5038327;28;20140;-61
2021/07/01 00:23:09;;;;;;;17.52;12.13;;;;;;;15.62;100.00;100143.50;5032315;28;20041;-59
2021/07/01 00:25:36;;;;;;;16.45;11.30;;;;;;;15.59;100.00;100147.25;5035264;28;20411;-60
2021/07/01 00:28:03;;;;;;;16.48;11.77;;;;;;;15.56;100.00;100139.50;5044987;28;20060;-60
2021/07/01 00:30:29;;;;;;;15.93;11.35;;;;;;;15.53;100.00;100129.00;5048166;28;20040;-60
2021/07/01 00:32:56;;;;;;;17.13;12.35;;;;;;;15.52;100.00;100137.97;5049190;28;20045;-60
2021/07/01 00:35:22;;;;;;;16.88;11.73;;;;;;;15.53;100.00;100142.34;5045433;28;20141;-60
2021/07/01 00:37:50;;;;;;;13.60;10.77;;;;;;;15.55;100.00;100139.56;5046630;28;20068;-60
2021/07/01 00:40:17;;;;;;;15.88;10.15;;;;;;;15.51;100.00;100146.94;5043574;28;20133;-61
2021/07/01 00:42:44;;;;;;;14.55;9.85;;;;;;;15.51;100.00;100140.72;5046992;28;20078;-61
2021/07/01 00:45:11;;;;;;;14.95;9.48;;;;;;;15.47;100.00;100145.44;5045444;28;20567;-60
2021/07/01 00:47:37;;;;;;;13.55;9.73;;;;;;;15.47;100.00;100150.75;5048055;28;20053;-61
2021/07/01 00:50:08;;;;;;;14.95;9.93;;;;;;;15.48;100.00;100146.28;5057796;28;20041;-60
2021/07/01 00:52:36;;;;;;;14.77;10.15;;;;;;;15.51;100.00;100152.25;5056228;28;20052;-59
2021/07/01 00:55:05;;;;;;;13.90;10.00;;;;;;;15.53;100.00;100149.50;5048995;28;20135;-59
2021/07/01 00:57:32;;;;;;;18.60;11.15;;;;;;;15.53;100.00;100153.00;5041738;28;20510;-61
2021/07/01 01:00:00;;;;;;;17.67;11.27;;;;;;;15.57;100.00;100162.53;5040652;28;20092;-61
2021/07/01 01:02:27;;;;;;;15.02;10.35;;;;;;;15.58;100.00;100158.06;5044851;28;20048;-59
2021/07/01 01:04:54;;;;;;;15.77;10.93;;;;;;;15.58;100.00;100152.72;5044450;28;20048;-61
2021/07/01 01:07:20;;;;;;;11.88;9.02;;;;;;;15.60;100.00;100146.28;5039349;28;20055;-62
2021/07/01 01:09:47;;;;;;;15.55;9.82;;;;;;;15.61;100.00;100160.50;5039990;28;20055;-60
2021/07/01 01:12:13;;;;;;;14.77;10.15;;;;;;;15.61;100.00;100156.00;5036819;28;20416;-60
2021/07/01 01:14:40;;;;;;;16.00;10.15;;;;;;;15.63;100.00;100155.91;5040407;28;20570;-58
2021/07/01 01:17:06;;;;;;;15.50;9.20;;;;;;;15.64;100.00;100163.78;5035855;28;20147;-60
2021/07/01 01:19:33;;;;;;;11.18;7.43;;;;;;;15.64;100.00;100157.59;5035578;28;20080;-61
2021/07/01 01:22:00;;;;;;;10.20;7.03;;;;;;;15.62;100.00;100164.88;5039666;28;20504;-60
2021/07/01 01:24:26;;;;;;;9.88;6.25;;;;;;;15.59;100.00;100160.59;5028651;28;20048;-61
2021/07/01 01:26:53;;;;;;;8.02;5.85;;;;;;;15.56;100.00;100166.19;5039341;28;20094;-58
2021/07/01 01:29:21;;;;;;;7.10;5.72;;;;;;;15.52;100.00;100175.31;5028673;28;20045;-59
2021/07/01 01:31:48;;;;;;;7.93;6.47;;;;;;;15.49;100.00;100170.19;5035684;28;20700;-60
2021/07/01 01:34:16;;;;;;;6.32;5.40;;;;;;;15.49;100.00;100170.19;5049552;28;20045;-60
2021/07/01 01:36:42;;;;;;;6.00;4.25;;;;;;;15.48;100.00;100171.16;5047334;28;20748;-62
2021/07/01 01:39:09;;;;;;;5.68;4.20;;;;;;;15.46;100.00;100175.75;5050532;28;20063;-59
2021/07/01 01:41:36;;;;;;;5.28;4.35;;;;;;;15.44;100.00;100172.31;5035367;28;21754;-61
2021/07/01 01:44:03;;;;;;;5.70;3.85;;;;;;;15.44;100.00;100165.16;5035587;28;20057;-62
2021/07/01 01:46:38;;;;;;;8.10;4.25;;;;;;;15.42;100.00;100164.44;5037076;28;20416;-60
2021/07/01 01:49:06;;;;;;;6.47;3.90;;;;;;;15.41;100.00;100164.56;5028632;28;20598;-59
2021/07/01 01:51:34;;;;;;;4.60;4.00;;;;;;;15.38;100.00;100170.09;5033111;28;20061;-61
2021/07/01 01:54:02;;;;;;;3.95;3.22;;;;;;;15.36;100.00;100162.22;5030693;28;21639;-61
2021/07/01 01:56:37;;;;;;;5.13;3.40;;;;;;;15.36;100.00;100166.69;5028057;28;20059;-60
2021/07/01 01:59:06;;;;;;;3.60;2.90;;;;;;;15.35;100.00;100173.84;5035395;28;20049;-58
2021/07/01 02:01:33;;;;;;;3.40;2.97;;;;;;;15.39;100.00;100175.34;5031029;28;20060;-59
2021/07/01 02:04:15;;;;;;;4.63;3.00;;;;;;;15.36;99.81;100167.53;5026556;28;21321;-59
2021/07/01 02:06:42;;;;;;;3.20;2.90;;;;;;;15.32;100.00;100165.19;5026626;28;21701;-59
2021/07/01 02:09:08;;;;;;;3.58;2.97;;;;;;;15.33;99.69;100161.56;5027117;28;20052;-61
2021/07/01 02:11:35;;;;;;;6.32;2.80;;;;;;;15.33;99.11;100166.91;5036811;28;20525;-61
2021/07/01 02:14:02;;;;;;;3.33;2.60;;;;;;;15.32;99.88;100159.84;5031212;28;20057;-60
2021/07/01 02:16:29;;;;;;;3.08;2.50;;;;;;;15.28;100.00;100161.03;5041216;28;20045;-60
2021/07/01 02:18:56;;;;;;;4.22;3.17;;;;;;;15.26;99.90;100158.50;5042033;28;20106;-58
2021/07/01 02:21:22;;;;;;;2.97;2.60;;;;;;;15.27;99.66;100160.16;5033530;28;20053;-61
2021/07/01 02:23:49;;;;;;;3.20;2.90;;;;;;;15.28;99.74;100155.69;5041324;28;20051;-59
2021/07/01 02:26:16;;;;;;;3.35;2.72;;;;;;;15.26;99.25;100165.63;5031951;28;20061;-61
2021/07/01 02:28:42;;;;;;;3.22;2.75;;;;;;;15.26;98.38;100165.63;5040868;28;20064;-58
2021/07/01 02:31:09;;;;;;;6.03;3.10;;;;;;;15.24;97.64;100164.88;5024594;28;20502;-60
2021/07/01 02:33:36;;;;;;;5.45;3.63;;;;;;;15.21;97.83;100165.94;5028137;28;20060;-60
2021/07/01 02:36:03;;;;;;;4.03;3.30;;;;;;;15.22;97.70;100172.13;5045997;28;20040;-60
2021/07/01 02:38:30;;;;;;;7.45;3.60;;;;;;;15.21;97.90;100165.09;5032316;28;20065;-59
2021/07/01 02:40:57;;;;;;;4.40;3.60;;;;;;;15.21;97.71;100171.28;5036506;28;20067;-59
2021/07/01 02:43:23;;;;;;;4.00;3.58;;;;;;;15.18;97.97;100174.16;5032036;28;20147;-60
2021/07/01 02:45:50;;;;;;;5.70;4.10;;;;;;;15.18;97.87;100173.31;5037706;28;20048;-60
2021/07/01 02:48:16;;;;;;;5.25;4.28;;;;;;;15.17;96.13;100179.59;5037003;28;20049;-62
2021/07/01 02:50:44;;;;;;;5.60;3.95;;;;;;;15.16;96.56;100173.41;5034729;28;20048;-61
2021/07/01 02:53:10;;;;;;;6.78;4.25;;;;;;;15.17;96.20;100174.25;5048164;28;20081;-59
2021/07/01 02:55:37;;;;;;;5.32;4.03;;;;;;;15.11;96.94;100177.38;5040462;28;20917;-60
2021/07/01 02:58:04;;;;;;;8.00;4.97;;;;;;;15.08;97.07;100173.97;5041701;28;20057;-60
2021/07/01 03:00:30;;;;;;;7.40;5.65;;;;;;;15.04;96.29;100179.59;5047419;28;20053;-62
2021/07/01 03:02:57;;;;;;;6.68;5.47;;;;;;;15.06;95.15;100183.00;5043614;28;20076;-61
2021/07/01 03:05:24;;;;;;;8.43;5.90;;;;;;;15.11;94.79;100185.38;5052839;28;20052;-60
2021/07/01 03:07:50;;;;;;;7.03;5.35;;;;;;;15.09;94.39;100189.00;5029295;28;20102;-60
2021/07/01 03:13:57;;;;;;;10.15;6.30;;;;;;;15.04;94.75;100190.25;5056426;28;20047;-62
2021/07/01 03:16:24;;;;;;;11.75;7.88;;;;;;;15.07;94.71;100193.59;5035620;28;20049;-60
2021/07/01 03:18:52;;;;;;;12.52;8.57;;;;;;;15.05;94.23;100184.81;5031801;28;20046;-60
2021/07/01 03:21:21;;;;;;;11.60;8.85;;;;;;;15.05;93.84;100186.63;5034121;28;21004;-61
2021/07/01 03:23:48;;;;;;;12.63;9.80;;;;;;;15.03;94.49;100192.06;5027625;28;20060;-62
2021/07/01 03:26:16;;;;;;;16.13;11.30;;;;;;;15.00;93.66;100188.75;5039204;28;20040;-60
2021/07/01 03:28:43;;;;;;;17.55;13.07;;;;;;;14.98;93.61;100190.66;5043773;28;20052;-61
2021/07/01 03:31:11;;;;;;;19.70;13.73;;;;;;;14.92;93.85;100191.09;5039020;28;20041;-59
2021/07/01 03:33:37;;;;;;;17.65;13.93;;;;;;;14.98;91.82;100196.00;5031837;28;20470;-59
2021/07/01 03:36:05;;;;;;;20.80;14.32;;;;;;;14.96;92.56;100189.91;5030054;28;20053;-61
2021/07/01 03:38:33;;;;;;;18.27;13.88;;;;;;;14.94;91.47;100191.88;5034280;28;20060;-61
2021/07/01 03:40:59;;;;;;;20.85;15.18;;;;;;;14.93;92.08;100185.69;5023516;28;20539;-63
2021/07/01 03:43:26;;;;;;;18.23;13.98;;;;;;;14.90;92.38;100198.34;5032474;28;20055;-60
2021/07/01 03:45:52;;;;;;;17.90;14.05;;;;;;;14.87;92.03;100194.06;5032429;28;20041;-61
2021/07/01 03:48:21;;;;;;;21.08;14.75;;;;;;;14.85;92.95;100189.81;5029809;28;20513;-62
2021/07/01 03:50:48;;;;;;;21.63;15.98;;;;;;;14.80;93.47;100191.91;5034314;28;20053;-60
2021/07/01 03:53:15;;;;;;;20.83;14.55;;;;;;;14.83;92.46;100192.56;5028940;28;20048;-60
2021/07/01 03:55:42;;;;;;;21.73;14.45;;;;;;;14.83;92.09;100194.38;5028576;28;20057;-61
2021/07/01 03:58:08;;;;;;;20.85;15.05;;;;;;;14.86;92.12;100200.38;5037399;28;20049;-59
2021/07/01 04:00:36;;;;;;;19.23;13.73;;;;;;;14.89;92.72;100202.84;5030003;28;20045;-60
2021/07/01 04:03:02;;;;;;;17.40;13.02;;;;;;;14.92;91.68;100197.28;5035406;28;20049;-60
2021/07/01 04:05:29;;;;;;;14.55;11.82;;;;;;;14.94;91.06;100199.88;5029849;28;20060;-61
2021/07/01 04:07:55;;;;;;;14.55;10.73;;;;;;;14.99;89.01;100198.56;5031277;28;20710;-61
2021/07/01 04:10:22;;;;;;;14.50;11.48;;;;;;;15.04;89.09;100207.13;5036675;28;20044;-61
2021/07/01 04:12:48;;;;;;;12.27;9.63;;;;;;;15.06;88.65;100213.22;5030094;28;20045;-60
2021/07/01 04:15:15;;;;;;;13.82;9.93;;;;;;;15.13;88.20;100218.09;5035160;28;20560;-61
2021/07/01 04:17:42;;;;;;;13.20;9.27;;;;;;;15.19;87.16;100217.69;5023947;28;20055;-61
2021/07/01 04:20:09;;;;;;;12.30;9.82;;;;;;;15.20;87.07;100224.75;5035315;28;20140;-61
2021/07/01 04:22:35;;;;;;;11.00;8.82;;;;;;;15.21;86.83;100229.97;5037014;28;20049;-61
2021/07/01 04:25:02;;;;;;;12.75;9.18;;;;;;;15.22;87.11;100220.16;5041518;28;20104;-59
2021/07/01 04:27:29;;;;;;;13.23;9.15;;;;;;;15.22;87.11;100220.16;5051169;28;20045;-61
2021/07/01 04:29:56;;;;;;;12.20;9.60;;;;;;;15.23;86.34;100220.06;5034783;28;20076;-60
2021/07/01 04:32:23;;;;;;;13.55;8.95;;;;;;;15.22;86.52;100222.81;5035759;28;20052;-61
2021/07/01 04:34:49;;;;;;;11.32;8.63;;;;;;;15.26;86.33;100216.31;5042450;28;20408;-62
2021/07/01 04:37:16;;;;;;;11.52;8.43;;;;;;;15.25;86.13;100225.28;5038145;28;20104;-60
2021/07/01 04:39:43;;;;;;;11.15;7.95;;;;;;;15.31;85.17;100225.69;5051952;28;20117;-60
2021/07/01 04:42:09;;;;;;;8.57;7.00;;;;;;;15.31;85.06;100228.38;5043789;28;20084;-60
2021/07/01 04:44:36;;;;;;;11.65;7.43;;;;;;;15.34;85.19;100219.31;5030460;28;20049;-58
2021/07/01 04:47:03;;;;;;;8.93;6.95;;;;;;;15.35;85.31;100223.69;5025380;28;20051;-61
2021/07/01 04:49:29;;;;;;;9.55;7.25;;;;;;;15.36;84.64;100225.38;5026452;28;20056;-58
2021/07/01 04:51:56;;;;;;;10.20;7.68;;;;;;;15.37;84.98;100219.94;5029980;28;20463;-55
2021/07/01 04:54:22;;;;;;;8.57;7.13;;;;;;;15.38;84.72;100223.47;5026334;28;20053;-55
2021/07/01 04:56:49;;;;;;;9.85;7.10;;;;;;;15.37;84.20;100221.75;5020292;28;20060;-55
2021/07/01 04:59:20;;;;;;;10.75;7.63;;;;;;;15.35;84.74;100221.88;5027141;28;20084;-55
2021/07/01 05:01:47;;;;;;;12.10;7.90;;;;;;;15.37;84.98;100222.63;5027764;28;20547;-55
2021/07/01 05:04:14;;;;;;;9.02;6.93;;;;;;;15.42;84.61;100224.97;5023467;28;20052;-55
2021/07/01 05:06:45;;;;;;;10.02;7.03;;;;;;;15.45;84.70;100224.72;5027632;28;20531;-56
2021/07/01 05:09:12;;;;;;;8.52;7.05;;;;;;;15.47;84.29;100221.97;5029650;28;20727;-55
2021/07/01 05:11:38;;;;;;;8.20;6.05;;;;;;;15.49;84.08;100225.38;5034759;28;20053;-56
2021/07/01 05:14:05;;;;;;;8.27;6.40;;;;;;;15.50;84.06;100227.09;5042892;28;20524;-54
2021/07/01 05:16:33;;;;;;;9.55;6.30;;;;;;;15.52;84.33;100227.84;5037711;28;20412;-55
2021/07/01 05:19:01;;;;;;;10.75;6.35;;;;;;;15.51;84.19;100234.13;5021802;28;20052;-55
2021/07/01 05:21:28;;;;;;;9.00;6.43;;;;;;;15.51;84.75;100236.81;5032679;28;20056;-56
2021/07/01 05:23:55;;;;;;;10.50;6.88;;;;;;;15.52;84.86;100236.69;5037410;28;20053;-55
2021/07/01 05:26:22;;;;;;;12.70;8.85;;;;;;;15.51;84.78;100248.34;5037531;28;20049;-56
2021/07/01 05:28:48;;;;;;;9.50;6.95;;;;;;;15.50;84.54;100243.09;5042751;28;20063;-57
2021/07/01 05:31:35;;;;;;;7.32;5.93;;;;;;;15.51;84.45;100250.16;5037192;28;20060;-58
2021/07/01 05:34:02;;;;;;;5.30;4.70;;;;;;;15.51;84.23;100248.34;5025788;28;20049;-56
2021/07/01 05:36:28;;;;;;;8.90;5.28;;;;;;;15.54;84.39;100256.13;5024387;28;20041;-57
2021/07/01 05:38:55;;;;;;;7.32;5.18;;;;;;;15.56;84.22;100256.91;5029469;28;20155;-56
2021/07/01 05:41:21;;;;;;;6.40;5.47;;;;;;;15.59;84.22;100258.50;5039940;28;20048;-57
2021/07/01 05:43:48;;;;;;;6.05;4.90;;;;;;;15.58;83.97;100252.34;5030978;28;20045;-56
2021/07/01 05:46:14;;;;;;;6.90;4.93;;;;;;;15.59;83.96;100247.81;5031187;28;20549;-56
2021/07/01 05:48:42;;;;;;;5.65;4.38;;;;;;;15.59;83.22;100240.66;5037486;28;20052;-57
2021/07/01 05:51:10;;;;;;;6.28;4.70;;;;;;;15.65;82.51;100250.91;5034592;28;20057;-56
2021/07/01 05:54:02;;;;;;;6.13;4.60;;;;;;;15.67;82.56;100249.00;5044189;28;20059;-57
2021/07/01 05:56:25;;;;;;;6.05;4.95;;;;;;;15.70;83.05;100248.78;5029798;28;20148;-57
2021/07/01 05:58:53;;;;;;;7.32;4.57;;;;;;;15.70;81.83;100253.28;5035101;28;20041;-54
2021/07/01 06:01:20;;;;;;;5.38;4.60;;;;;;;15.68;82.15;100253.38;5039919;28;20504;-55
2021/07/01 06:03:47;;;;;;;3.53;3.20;;;;;;;15.65;81.70;100250.91;5032620;28;20049;-56
2021/07/01 06:06:13;;;;;;;3.53;2.90;;;;;;;15.60;81.59;100247.72;5039523;28;20041;-55
2021/07/01 06:08:41;;;;;;;4.40;2.95;;;;;;;15.56;81.61;100256.06;5037408;28;20057;-56
2021/07/01 06:11:08;;;;;;;3.15;2.70;;;;;;;15.58;81.14;100249.66;5037597;28;20246;-56
2021/07/01 06:13:42;;;;;;;2.80;2.55;;;;;;;15.52;81.86;100258.06;5041125;28;20080;-56
2021/07/01 06:16:13;;;;;;;2.72;2.50;;;;;;;15.49;82.34;100260.06;5032429;28;20049;-56
2021/07/01 06:18:40;;;;;;;5.35;2.58;;;;;;;15.49;81.93;100265.41;5040034;28;20048;-55
2021/07/01 06:21:08;;;;;;;4.68;2.53;;;;;;;15.47;82.75;100267.31;5029317;28;20045;-55
2021/07/01 06:23:39;;;;;;;2.95;2.33;;;;;;;15.44;82.14;100265.72;5031112;28;20049;-56
2021/07/01 06:26:07;;;;;;;3.03;2.50;;;;;;;15.50;83.22;100272.47;5038881;28;20064;-56
2021/07/01 06:28:40;;;;;;;3.17;2.22;;;;;;;15.49;83.79;100273.41;5028575;28;20059;-59
2021/07/01 06:31:08;;;;;;;3.70;2.42;;;;;;;15.53;83.10;100281.13;5043043;28;20049;-61
2021/07/01 06:33:40;;;;;;;2.92;2.22;;;;;;;15.52;83.46;100284.75;5033393;28;20053;-59
2021/07/01 06:36:08;;;;;;;4.18;2.28;;;;;;;15.52;83.99;100278.53;5032393;28;20055;-60
2021/07/01 06:38:36;;;;;;;3.13;2.40;;;;;;;15.52;85.11;100281.22;5037877;28;20583;-60
2021/07/01 06:41:07;;;;;;;3.80;2.25;;;;;;;15.51;84.86;100285.69;5032784;28;20053;-62
2021/07/01 06:43:33;;;;;;;2.80;2.13;;;;;;;15.53;85.32;100288.25;5033976;28;21106;-59
2021/07/01 06:46:02;;;;;;;3.75;2.25;;;;;;;15.49;84.77;100286.75;5039168;28;20507;-60
2021/07/01 06:48:28;;;;;;;4.78;2.60;;;;;;;15.49;85.21;100292.94;5032254;28;20041;-60
2021/07/01 06:50:58;;;;;;;4.57;2.17;;;;;;;15.49;85.29;100292.09;5031759;28;20057;-60
2021/07/01 06:53:26;;;;;;;2.60;2.05;;;;;;;15.47;84.34;100297.53;5035394;28;20649;-60
2021/07/01 06:55:53;;;;;;;2.63;2.35;;;;;;;15.45;84.39;100302.97;5034888;28;20052;-61
2021/07/01 06:58:21;;;;;;;2.05;1.85;;;;;;;15.43;83.25;100307.56;5036647;28;20048;-59
2021/07/01 07:00:48;;;;;;;3.35;2.10;;;;;;;15.42;82.01;100303.19;5050633;28;20059;-61
2021/07/01 07:03:17;;;;;;;2.70;2.25;;;;;;;15.41;82.41;100308.66;5037355;28;20058;-60
2021/07/01 07:05:47;;;;;;;2.40;2.20;;;;;;;15.40;81.89;100304.28;5023640;28;20049;-60
2021/07/01 07:08:15;;;;;;;3.28;2.47;;;;;;;15.42;82.03;100308.50;5025406;28;20675;-61
2021/07/01 07:10:43;;;;;;;4.43;2.80;;;;;;;15.44;82.06;100313.75;5044466;28;20528;-61
2021/07/01 07:13:11;;;;;;;4.32;3.22;;;;;;;15.46;81.95;100309.16;5039198;28;20063;-60
2021/07/01 07:15:39;;;;;;;3.88;3.17;;;;;;;15.42;82.60;100308.50;5040275;28;20079;-59
2021/07/01 07:18:19;;;;;;;4.00;3.60;;;;;;;15.45;82.44;100300.31;5039495;28;20076;-62
2021/07/01 07:21:03;;;;;;;4.80;2.88;;;;;;;15.51;81.55;100312.38;5037307;28;20393;-61
2021/07/01 07:23:32;;;;;;;3.97;3.50;;;;;;;15.57;81.70;100306.66;5039290;28;20057;-62
2021/07/01 07:26:03;;;;;;;5.55;3.40;;;;;;;15.63;81.49;100306.22;5040207;28;20052;-62
2021/07/01 07:28:33;;;;;;;10.30;4.43;;;;;;;15.70;81.57;100296.84;5041329;28;20065;-61
2021/07/01 07:31:01;;;;;;;8.43;3.90;;;;;;;15.87;81.86;100309.03;5039144;28;20048;-60
2021/07/01 07:33:28;;;;;;;6.35;3.60;;;;;;;15.93;81.18;100307.72;5039601;28;20132;-61
2021/07/01 07:35:55;;;;;;;4.40;2.75;;;;;;;15.96;80.72;100310.19;5041860;28;20051;-61
2021/07/01 07:38:25;;;;;;;7.35;2.95;;;;;;;16.01;80.20;100316.06;5039694;28;20045;-59
2021/07/01 07:40:53;;;;;;;3.75;2.38;;;;;;;16.04;80.89;100315.84;5041334;28;20057;-60
2021/07/01 07:43:21;;;;;;;5.57;3.10;;;;;;;16.10;81.40;100318.06;5040605;28;20526;-64
2021/07/01 07:45:49;;;;;;;5.18;3.00;;;;;;;16.17;81.69;100313.16;5038571;28;20132;-60
2021/07/01 07:48:16;;;;;;;3.78;3.00;;;;;;;16.22;81.63;100306.50;5038114;28;20045;-62
2021/07/01 07:50:49;;;;;;;4.68;2.72;;;;;;;16.23;80.57;100305.53;5038127;28;20059;-61
2021/07/01 07:53:20;;;;;;;3.67;2.78;;;;;;;16.30;80.95;100311.31;5038060;28;20543;-60
2021/07/01 07:55:51;;;;;;;3.50;2.50;;;;;;;16.38;78.71;100307.09;5033845;28;20103;-60
2021/07/01 07:58:23;;;;;;;3.67;3.03;;;;;;;16.46;80.45;100307.41;5042878;28;20045;-60
2021/07/01 08:00:50;;;;;;;4.45;3.13;;;;;;;16.59;80.16;100311.84;5040689;28;20049;-59
2021/07/01 08:03:17;;;;;;;6.15;3.25;;;;;;;16.71;78.57;100310.97;5038963;28;20128;-62
2021/07/01 08:05:43;;;;;;;2.90;2.60;;;;;;;16.87;78.96;100308.88;5038047;28;20692;-61
2021/07/01 08:08:15;;;;;;;4.45;3.30;;;;;;;17.01;77.90;100308.69;5036020;28;20133;-60
2021/07/01 08:10:44;;;;;;;5.32;3.42;;;;;;;17.13;77.74;100313.16;5043528;28;20096;-61
2021/07/01 08:13:10;;;;;;;6.35;3.85;;;;;;;17.13;75.81;100312.31;5047441;28;20049;-59
2021/07/01 08:15:40;;;;;;;5.47;4.00;;;;;;;17.13;76.84;100313.16;5053233;28;20044;-60
2021/07/01 08:18:08;;;;;;;5.47;4.13;;;;;;;17.17;76.55;100319.09;5030047;28;20045;-61
2021/07/01 08:20:35;;;;;;;5.35;4.03;;;;;;;17.18;75.20;100316.31;5012530;28;20060;-59
2021/07/01 08:23:02;;;;;;;5.97;4.50;;;;;;;17.23;74.85;100317.78;5036492;28;20250;-59
2021/07/01 08:25:32;;;;;;;4.70;3.95;;;;;;;17.32;75.10;100309.06;5050784;28;20167;-60
2021/07/01 08:27:59;;;;;;;;;;;;;;;17.43;74.50;100314.47;5058476;28;20045;-58
2021/07/01 08:30:27;;;;;;;4.85;4.22;;;;;;;17.52;73.72;100306.56;5040456;28;19931;-61
2021/07/01 08:32:58;;;;;;;5.22;4.40;;;;;;;17.60;73.52;100311.34;5026862;28;20045;-60
2021/07/01 08:35:27;;;;;;;4.70;4.03;;;;;;;17.74;73.52;100323.69;5041210;28;20705;-62
2021/07/01 08:37:58;;;;;;;5.90;3.90;;;;;;;17.78;72.08;100319.81;5040696;28;20049;-62
2021/07/01 08:40:34;;;;;;;3.97;3.28;;;;;;;17.70;70.52;100316.88;5037136;28;20482;-59
2021/07/01 08:43:02;;;;;;;4.35;3.05;;;;;;;17.58;71.33;100315.97;5035180;28;20057;-59
2021/07/01 08:45:46;;;;;;;3.35;2.95;;;;;;;17.45;72.00;100312.53;5042669;28;20055;-60
2021/07/01 08:48:21;;;;;;;6.68;2.95;;;;;;;17.39;71.46;100313.84;5042241;28;20040;-62
2021/07/01 08:50:54;;;;;;;6.18;2.85;;;;;;;17.34;71.39;100313.34;5043043;28;20143;-62
2021/07/01 08:53:41;;;;;;;3.80;2.95;;;;;;;17.41;73.79;100322.63;5038249;28;20072;-60
2021/07/01 08:56:11;;;;;;;4.40;2.22;;;;;;;17.63;72.76;100320.97;5038039;28;20049;-61
2021/07/01 08:58:46;;;;;;;2.00;1.80;;;;;;;17.88;72.56;100318.13;5038480;28;20056;-60
2021/07/01 09:01:17;;;;;;;2.22;2.00;;;;;;;18.07;71.69;100322.88;5040019;28;20067;-63
2021/07/01 09:03:47;;;;;;;2.20;2.00;;;;;;;18.11;70.80;100321.63;5031712;28;20068;-63
2021/07/01 09:06:23;;;;;;;2.80;2.28;;;;;;;18.10;71.43;100325.31;5041935;28;20132;-61
2021/07/01 09:08:51;;;;;;;3.53;2.17;;;;;;;18.07;71.45;100325.56;5035164;28;20053;-60
2021/07/01 09:11:20;;;;;;;3.80;2.45;;;;;;;17.99;71.65;100328.81;5039055;28;20063;-58
2021/07/01 09:13:49;;;;;;;3.47;2.00;;;;;;;17.95;72.05;100329.19;5043043;28;20135;-58
2021/07/01 09:16:18;;;;;;;3.92;2.22;;;;;;;17.94;73.22;100324.81;5047879;28;20568;-62
2021/07/01 09:18:45;;;;;;;4.50;2.17;;;;;;;17.98;73.93;100323.59;5048367;28;20102;-62
2021/07/01 09:21:14;;;;;;;2.90;2.30;;;;;;;18.02;72.41;100322.38;5045117;28;20140;-60
2021/07/01 09:23:48;;;;;;;2.28;1.90;;;;;;;18.11;73.46;100313.59;5044346;28;20049;-61
2021/07/01 09:26:23;;;;;;;5.22;2.05;;;;;;;18.21;71.20;100322.63;5037455;28;20438;-60
2021/07/01 09:28:51;;;;;;;4.47;1.95;;;;;;;18.17;71.42;100319.34;5039200;28;20037;-61
2021/07/01 09:31:21;;;;;;;2.92;2.20;;;;;;;18.14;70.93;100332.97;5042698;28;20064;-63
2021/07/01 09:33:50;;;;;;;3.03;1.63;;;;;;;17.96;70.78;100330.88;5037530;28;20055;-61
2021/07/01 09:36:21;;;;;;;1.92;1.70;;;;;;;17.78;72.34;100335.88;5039266;28;20522;-64
2021/07/01 09:38:47;;;;;;;4.10;2.05;;;;;;;17.65;73.08;100335.97;5038292;28;20412;-62
2021/07/01 09:41:14;;;;;;;2.45;2.00;;;;;;;17.55;73.59;100334.94;5038821;28;20791;-60
2021/07/01 09:43:45;;;;;;;2.65;1.60;;;;;;;17.51;74.48;100341.50;5037977;28;20058;-60
2021/07/01 09:46:20;;;;;;;1.70;1.52;;;;;;;17.54;73.54;100336.75;5045018;28;20057;-61
2021/07/01 09:48:49;;;;;;;2.13;1.50;;;;;;;17.66;73.75;100332.31;5038920;28;20807;-60
2021/07/01 09:51:17;;;;;;;1.67;1.42;;;;;;;17.78;71.90;100330.53;5041789;28;20076;-60
2021/07/01 09:53:50;;;;;;;2.15;1.35;;;;;;;17.79;71.19;100327.69;5038384;28;20045;-61
2021/07/01 09:56:26;;;;;;;2.58;1.35;;;;;;;17.81;71.04;100332.94;5043577;28;21300;-62
2021/07/01 09:59:00;;;;;;;1.00;0.90;;;;;;;17.78;70.45;100331.38;5044779;28;20047;-63
2021/07/01 10:01:38;;;;;;;1.33;1.20;;;;;;;17.68;70.94;100335.72;5041338;28;20063;-62
2021/07/01 10:04:07;;;;;;;1.00;0.90;;;;;;;17.60;71.34;100346.16;5045230;28;20124;-61
2021/07/01 10:06:35;;;;;;;1.65;0.80;;;;;;;17.46;73.06;100352.56;5040447;28;20135;-61
2021/07/01 10:09:02;;;;;;;2.55;0.80;;;;;;;17.29;74.18;100344.97;5034947;28;21601;-61
2021/07/01 10:11:41;;;;;;;0.75;0.50;;;;;;;17.15;74.65;100354.03;5042541;28;20614;-60
2021/07/01 10:14:12;;;;;;;1.10;0.52;;;;;;;16.98;76.24;100351.75;5038331;28;20064;-60
2021/07/01 10:16:39;;;;;;;0.50;0.50;;;;;;;16.87;76.08;100353.50;5039341;28;20642;-61
2021/07/01 10:19:08;;;;;;;0.98;0.70;;;;;;;16.77;78.16;100343.50;5040991;28;20048;-59
2021/07/01 10:21:37;;;;;;;1.55;0.65;;;;;;;16.76;78.45;100346.28;5046611;28;20044;-62
2021/07/01 10:24:16;;;;;;;0.60;0.60;;;;;;;16.78;77.42;100344.34;5042985;28;20047;-59
2021/07/01 10:26:46;;;;;;;1.02;0.60;;;;;;;16.86;76.82;100341.94;5045784;28;20048;-61
2021/07/01 10:29:14;;;;;;;0.52;0.52;;;;;;;16.92;75.59;100346.00;5050753;28;20040;-58
2021/07/01 10:31:56;;;;;;;0.75;0.70;;;;;;;17.02;75.95;100347.88;5054922;28;20052;-60
2021/07/01 10:34:25;;;;;;;1.45;0.82;;;;;;;17.10;75.33;100345.50;5053002;28;20094;-60
2021/07/01 10:37:11;;;;;;;0.95;0.52;;;;;;;17.19;76.16;100344.78;5046920;28;20088;-61
2021/07/01 10:39:39;;;;;;;1.10;0.90;;;;;;;17.33;75.59;100351.78;5040432;28;20554;-61
2021/07/01 10:42:07;;;;;;;2.15;1.20;;;;;;;17.47;75.04;100348.91;5040188;28;20152;-59
2021/07/01 10:44:34;;;;;;;2.35;2.15;;;;;;;17.62;74.04;100352.25;5038043;28;20063;-61
2021/07/01 10:47:00;;;;;;;2.17;1.92;;;;;;;17.72;72.56;100342.56;5041623;28;20970;-62
2021/07/01 10:49:35;;;;;;;2.63;2.00;;;;;;;17.79;70.11;100350.94;5038041;28;20172;-60
2021/07/01 10:52:18;;;;;;;4.55;2.67;;;;;;;17.90;69.15;100358.19;5034436;28;20059;-60
2021/07/01 10:54:56;;;;;;;4.88;2.50;;;;;;;18.00;69.15;100357.31;5036922;28;20481;-59
2021/07/01 10:57:28;;;;;;;6.97;3.72;;;;;;;18.12;68.21;100352.81;5037396;28;20094;-60
2021/07/01 11:00:14;;;;;;;6.18;3.35;;;;;;;18.18;67.21;100357.72;5040255;28;20052;-60
2021/07/01 11:02:49;;;;;;;5.45;3.70;;;;;;;18.22;67.69;100364.53;5036657;28;20060;-58
2021/07/01 11:05:34;;;;;;;4.90;4.07;;;;;;;18.18;66.57;100355.88;5040187;28;21701;-60
2021/07/01 11:08:03;;;;;;;7.43;4.65;;;;;;;18.16;66.44;100357.81;5039972;28;20451;-58
2021/07/01 11:10:38;;;;;;;5.65;4.20;;;;;;;18.03;65.46;100362.44;5042989;28;20059;-59
2021/07/01 11:13:09;;;;;;;6.57;4.03;;;;;;;17.99;67.86;100360.13;5041754;28;20086;-60
2021/07/01 11:16:14;;;;;;;7.35;4.97;;;;;;;17.94;66.70;100363.19;5044624;28;20098;-59
2021/07/01 11:18:43;;;;;;;4.88;4.28;;;;;;;17.91;66.57;100352.69;5011442;28;20075;-58
2021/07/01 11:21:19;;;;;;;4.80;3.80;;;;;;;17.91;66.85;100357.22;5040013;28;20048;-57
2021/07/01 11:23:50;;;;;;;6.85;4.90;;;;;;;17.94;67.28;100362.34;5037108;28;20122;-59
2021/07/01 11:26:22;;;;;;;7.82;4.80;;;;;;;17.89;66.38;100368.03;5038535;28;20068;-59
2021/07/01 11:28:49;;;;;;;6.45;4.72;;;;;;;17.85;67.51;100370.09;5048524;28;20465;-59
2021/07/01 11:31:16;;;;;;;5.75;4.55;;;;;;;17.81;66.87;100371.28;5047605;28;21793;-60